createdAt,value
2018-02-06T00:01:59.468Z,0.10
2018-02-06T00:04:27.840Z,0.10
2018-02-06T00:06:56.248Z,0.00
2018-02-06T00:09:24.634Z,0.00
2018-02-06T00:11:53.005Z,0.00
2018-02-06T00:14:21.417Z,0.00
2018-02-06T00:16:49.789Z,-0.10
2018-02-06T00:19:18.933Z,-0.10
2018-02-06T00:21:48.085Z,-0.10
2018-02-06T00:24:17.242Z,-0.10
2018-02-06T00:26:48.742Z,-0.10
2018-02-06T00:29:18.449Z,0.00
2018-02-06T00:31:49.767Z,-0.10
2018-02-06T00:34:19.746Z,-0.10
2018-02-06T00:36:51.006Z,0.00
2018-02-06T00:39:20.574Z,-0.10
2018-02-06T00:41:49.950Z,0.00
2018-02-06T00:44:19.001Z,0.00
2018-02-06T00:46:48.184Z,-0.10
2018-02-06T00:49:17.621Z,-0.10
2018-02-06T00:51:46.013Z,0.00
2018-02-06T00:54:14.380Z,0.00
2018-02-06T00:56:42.801Z,0.00
2018-02-06T00:59:11.169Z,-0.10
2018-02-06T01:01:39.540Z,0.00
2018-02-06T01:04:07.945Z,0.00
2018-02-06T01:06:37.082Z,-0.20
2018-02-06T01:09:05.465Z,-0.20
2018-02-06T01:11:33.865Z,-0.30
2018-02-06T01:14:02.241Z,-0.20
2018-02-06T01:16:30.706Z,-0.20
2018-02-06T01:18:59.130Z,-0.20
2018-02-06T01:21:28.271Z,-0.20
2018-02-06T01:23:56.642Z,-0.20
2018-02-06T01:26:26.971Z,-0.20
2018-02-06T01:28:57.013Z,-0.20
2018-02-06T01:31:26.233Z,-0.20
2018-02-06T01:33:56.194Z,-0.10
2018-02-06T01:36:25.536Z,-0.10
2018-02-06T01:38:56.016Z,-0.20
2018-02-06T01:41:25.110Z,-0.20
2018-02-06T01:43:55.421Z,-0.20
2018-02-06T01:46:26.189Z,-0.10
2018-02-06T01:48:54.773Z,-0.10
2018-02-06T01:51:25.039Z,-0.10
2018-02-06T01:53:56.766Z,-0.10
2018-02-06T01:56:25.989Z,-0.10
2018-02-06T01:58:55.150Z,-0.10
2018-02-06T02:01:23.561Z,-0.20
2018-02-06T02:03:52.432Z,-0.10
2018-02-06T02:06:20.815Z,-0.10
2018-02-06T02:08:49.222Z,-0.10
2018-02-06T02:11:17.593Z,-0.20
2018-02-06T02:13:45.966Z,-0.30
2018-02-06T02:16:14.373Z,-0.20
2018-02-06T02:18:43.169Z,-0.20
2018-02-06T02:21:14.296Z,-0.10
2018-02-06T02:23:43.407Z,-0.10
2018-02-06T02:26:12.281Z,-0.10
2018-02-06T02:28:42.386Z,-0.20
2018-02-06T02:31:11.170Z,-0.30
2018-02-06T02:33:41.249Z,-0.30
2018-02-06T02:36:11.111Z,-0.30
2018-02-06T02:38:40.635Z,-0.20
2018-02-06T02:41:10.298Z,-0.20
2018-02-06T04:40:43.814Z,-0.10
2018-02-06T04:43:12.186Z,-0.10
2018-02-06T04:45:41.370Z,-0.10
2018-02-06T04:48:12.831Z,0.00
2018-02-06T04:50:42.020Z,0.00
2018-02-06T04:53:11.466Z,0.00
2018-02-06T04:55:39.826Z,0.00
2018-02-06T04:58:08.193Z,0.00
2018-02-06T05:00:36.585Z,-0.10
2018-02-06T05:03:04.950Z,-0.20
2018-02-06T05:05:33.328Z,-0.20
2018-02-06T05:08:03.339Z,-0.10
2018-02-06T05:10:32.575Z,-0.20
2018-02-06T05:13:00.944Z,-0.20
2018-02-06T05:15:32.582Z,-0.30
2018-02-06T05:18:00.957Z,-0.30
2018-02-06T05:20:29.325Z,-0.30
2018-02-06T05:22:58.492Z,-0.30
2018-02-06T05:25:26.861Z,-0.30
2018-02-06T05:27:55.241Z,-0.30
2018-02-06T05:30:23.862Z,-0.40
2018-02-06T05:32:53.008Z,-0.30
2018-02-06T05:35:21.373Z,-0.30
2018-02-06T05:37:49.786Z,-0.20
2018-02-06T05:40:18.158Z,-0.20
2018-02-06T05:42:46.619Z,-0.20
2018-02-06T05:45:15.023Z,-0.30
2018-02-06T05:47:43.402Z,-0.40
2018-02-06T05:50:11.788Z,-0.40
2018-02-06T05:52:40.185Z,-0.50
2018-02-06T05:55:09.318Z,-0.60
2018-02-06T05:57:37.686Z,-0.60
2018-02-06T06:00:06.098Z,-0.60
2018-02-06T06:02:34.468Z,-0.60
2018-02-06T06:05:02.844Z,-0.50
2018-02-06T06:07:31.247Z,-0.40
2018-02-06T06:09:59.631Z,-0.50
2018-02-06T06:12:29.505Z,-0.60
2018-02-06T06:14:57.906Z,-0.60
2018-02-06T06:17:27.338Z,-0.60
2018-02-06T06:19:55.713Z,-0.50
2018-02-06T06:22:24.129Z,-0.50
2018-02-06T06:24:52.511Z,-0.60
2018-02-06T06:27:20.886Z,-0.70
2018-02-06T06:29:49.301Z,-0.80
2018-02-06T06:32:17.674Z,-0.90
2018-02-06T06:34:46.042Z,-0.90
2018-02-06T06:37:14.620Z,-0.90
2018-02-06T06:39:43.003Z,-0.80
2018-02-06T06:42:11.369Z,-0.70
2018-02-06T06:44:39.784Z,-0.80
2018-02-06T06:47:08.195Z,-0.70
2018-02-06T06:49:37.333Z,-0.80
2018-02-06T06:52:05.734Z,-0.80
2018-02-06T06:54:34.105Z,-0.70
2018-02-06T06:57:02.474Z,-0.70
2018-02-06T06:59:30.873Z,-0.60
2018-02-06T07:01:59.249Z,-0.60
2018-02-06T07:04:27.616Z,-0.60
2018-02-06T07:06:56.031Z,-0.60
2018-02-06T07:09:24.405Z,-0.50
2018-02-06T07:11:52.785Z,-0.50
2018-02-06T07:14:21.193Z,-0.50
2018-02-06T07:16:49.562Z,-0.50
2018-02-06T07:19:18.701Z,-0.50
2018-02-06T07:21:47.105Z,-0.50
2018-02-06T07:24:15.478Z,-0.40
2018-02-06T07:26:43.858Z,-0.50
2018-02-06T07:29:12.270Z,-0.50
2018-02-06T07:31:41.419Z,-0.40
2018-02-06T07:34:09.793Z,-0.40
2018-02-06T07:36:38.201Z,-0.30
2018-02-06T07:39:06.575Z,-0.30
2018-02-06T07:41:34.975Z,-0.30
2018-02-06T07:44:04.148Z,-0.30
2018-02-06T07:46:32.523Z,-0.30
2018-02-06T07:49:00.896Z,-0.20
2018-02-06T07:51:29.309Z,-0.20
2018-02-06T07:53:58.453Z,-0.20
2018-02-06T07:56:26.830Z,-0.20
2018-02-06T07:58:55.241Z,-0.20
2018-02-06T08:01:23.626Z,-0.10
2018-02-06T08:03:52.021Z,-0.20
2018-02-06T08:06:21.189Z,-0.10
2018-02-06T08:08:49.569Z,-0.10
2018-02-06T08:11:17.934Z,0.00
2018-02-06T08:13:46.336Z,0.00
2018-02-06T08:16:14.706Z,0.00
2018-02-06T08:18:43.068Z,0.00
2018-02-06T08:21:11.469Z,0.00
2018-02-06T08:23:39.835Z,0.00
2018-02-06T08:26:08.241Z,-0.10
2018-02-06T08:28:36.642Z,0.00
2018-02-06T08:31:05.012Z,0.10
2018-02-06T08:33:34.137Z,0.10
2018-02-06T08:36:02.551Z,0.10
2018-02-06T08:38:30.922Z,0.10
2018-02-06T08:40:59.289Z,0.10
2018-02-06T08:43:27.683Z,0.20
2018-02-06T08:45:56.056Z,0.10
2018-02-06T08:48:24.429Z,0.10
2018-02-06T08:50:52.833Z,0.20
2018-02-06T08:53:21.237Z,0.40
2018-02-06T08:55:50.353Z,0.40
2018-02-06T08:58:18.760Z,0.30
2018-02-06T09:00:47.126Z,0.40
2018-02-06T09:03:15.494Z,0.50
2018-02-06T09:05:43.894Z,0.60
2018-02-06T09:08:12.258Z,0.70
2018-02-06T09:10:40.621Z,0.80
2018-02-06T09:13:09.013Z,0.80
2018-02-06T09:15:37.390Z,1.00
2018-02-06T09:18:05.765Z,1.20
2018-02-06T09:20:34.165Z,1.40
2018-02-06T09:23:02.530Z,1.50
2018-02-06T09:25:30.898Z,1.70
2018-02-06T09:27:59.355Z,2.00
2018-02-06T09:30:28.480Z,2.60
2018-02-06T09:32:56.842Z,2.60
2018-02-06T09:35:25.241Z,3.40
2018-02-06T09:37:53.605Z,4.60
2018-02-06T09:40:21.977Z,5.50
2018-02-06T09:42:50.393Z,6.20
2018-02-06T09:45:18.761Z,6.70
2018-02-06T09:47:47.125Z,6.50
2018-02-06T09:50:15.505Z,6.50
2018-02-06T09:52:43.873Z,6.40
2018-02-06T09:55:12.242Z,6.30
2018-02-06T09:57:40.636Z,6.10
2018-02-06T10:00:09.010Z,6.00
2018-02-06T10:02:37.377Z,5.90
2018-02-06T10:05:05.793Z,6.30
2018-02-06T10:07:34.161Z,6.90
2018-02-06T10:10:02.580Z,7.20
2018-02-06T10:12:30.953Z,7.90
2018-02-06T10:14:59.322Z,8.70
2018-02-06T10:17:27.713Z,9.30
2018-02-06T10:19:56.882Z,9.40
2018-02-06T10:22:25.253Z,9.30
2018-02-06T10:24:53.642Z,9.30
2018-02-06T10:27:22.314Z,9.50
2018-02-06T10:29:50.694Z,10.00
2018-02-06T10:32:19.074Z,10.10
2018-02-06T10:34:47.469Z,10.40
2018-02-06T10:37:15.842Z,10.50
2018-02-06T10:39:44.232Z,10.60
2018-02-06T10:42:12.633Z,10.70
2018-02-06T10:44:41.006Z,11.00
2018-02-06T10:47:10.163Z,11.90
2018-02-06T10:49:38.848Z,12.00
2018-02-06T10:52:07.216Z,12.50
2018-02-06T10:54:35.597Z,13.30
2018-02-06T10:57:03.993Z,14.00
2018-02-06T10:59:32.465Z,13.70
2018-02-06T11:02:00.842Z,13.70
2018-02-06T11:04:29.237Z,13.60
2018-02-06T11:06:57.613Z,13.70
2018-02-06T11:09:25.990Z,13.50
2018-02-06T11:11:54.415Z,13.90
2018-02-06T11:14:23.621Z,15.10
2018-02-06T11:16:51.993Z,15.10
2018-02-06T11:19:21.336Z,15.50
2018-02-06T11:21:49.721Z,15.50
2018-02-06T11:24:18.115Z,15.40
2018-02-06T11:26:46.537Z,15.70
2018-02-06T11:29:14.908Z,15.60
2018-02-06T11:31:44.045Z,14.90
2018-02-06T11:34:12.460Z,14.80
2018-02-06T11:36:40.841Z,14.50
2018-02-06T11:39:09.236Z,14.30
2018-02-06T11:41:38.577Z,15.00
2018-02-06T11:44:06.951Z,15.00
2018-02-06T11:46:35.326Z,15.50
2018-02-06T11:49:03.870Z,15.70
2018-02-06T11:51:33.090Z,16.30
2018-02-06T11:54:01.453Z,16.30
2018-02-06T11:56:30.661Z,15.70
2018-02-06T11:58:59.049Z,15.70
2018-02-06T12:01:27.421Z,15.30
2018-02-06T12:03:55.827Z,14.80
2018-02-06T12:06:24.244Z,14.40
2018-02-06T12:08:53.382Z,14.20
2018-02-06T12:11:21.781Z,14.20
2018-02-06T12:13:50.171Z,14.00
2018-02-06T12:16:18.538Z,14.10
2018-02-06T12:18:46.954Z,14.20
2018-02-06T12:21:15.328Z,13.60
2018-02-06T12:23:43.701Z,13.10
2018-02-06T12:26:12.122Z,12.80
2018-02-06T12:28:41.274Z,12.70
2018-02-06T12:31:09.661Z,12.60
2018-02-06T12:33:38.061Z,12.90
2018-02-06T12:36:07.213Z,13.00
2018-02-06T12:38:35.586Z,13.00
2018-02-06T12:41:04.008Z,13.00
2018-02-06T12:43:32.373Z,13.30
2018-02-06T12:46:00.762Z,13.70
2018-02-06T12:48:29.179Z,13.90
2018-02-06T12:50:57.589Z,14.20
2018-02-06T12:53:25.967Z,14.60
2018-02-06T12:55:54.380Z,15.30
2018-02-06T12:58:22.878Z,15.60
2018-02-06T13:00:52.051Z,16.10
2018-02-06T13:03:21.354Z,16.10
2018-02-06T13:05:49.747Z,16.30
2018-02-06T13:08:19.088Z,16.00
2018-02-06T13:10:47.726Z,15.90
2018-02-06T13:13:16.092Z,15.90
2018-02-06T13:15:44.465Z,16.20
2018-02-06T13:18:12.866Z,16.30
2018-02-06T13:20:42.000Z,16.50
2018-02-06T13:23:10.378Z,16.40
2018-02-06T13:25:38.846Z,16.20
2018-02-06T13:28:07.243Z,15.70
2018-02-06T13:30:35.661Z,15.70
2018-02-06T13:33:04.406Z,16.00
2018-02-06T13:35:32.773Z,16.30
2018-02-06T13:38:01.154Z,16.90
2018-02-06T13:40:29.642Z,17.10
2018-02-06T13:42:58.851Z,17.60
2018-02-06T13:45:27.244Z,18.10
2018-02-06T13:47:55.690Z,18.40
2018-02-06T13:50:24.214Z,18.50
2018-02-06T13:52:52.995Z,17.70
2018-02-06T13:55:21.521Z,17.20
2018-02-06T13:57:52.602Z,16.90
2018-02-06T14:00:21.463Z,16.80
2018-02-06T14:02:50.021Z,16.80
2018-02-06T14:05:19.171Z,16.10
2018-02-06T14:07:47.635Z,16.00
2018-02-06T14:10:16.068Z,14.80
2018-02-06T14:12:45.997Z,12.10
2018-02-06T14:15:15.275Z,11.00
2018-02-06T14:17:43.693Z,11.00
2018-02-06T14:20:12.124Z,10.20
2018-02-06T14:22:41.405Z,9.70
2018-02-06T14:25:09.929Z,9.10
2018-02-06T14:27:38.297Z,8.70
2018-02-06T14:30:06.670Z,8.30
2018-02-06T14:32:35.078Z,8.00
2018-02-06T14:35:04.223Z,7.20
2018-02-06T14:37:34.894Z,7.20
2018-02-06T14:40:03.360Z,6.90
2018-02-06T14:42:32.540Z,6.40
2018-02-06T14:45:00.914Z,6.30
2018-02-06T14:47:29.338Z,6.20
2018-02-06T14:49:58.493Z,5.90
2018-02-06T14:52:26.905Z,5.90
2018-02-06T14:54:56.295Z,5.70
2018-02-06T14:57:24.701Z,5.70
2018-02-06T14:59:53.834Z,5.50
2018-02-06T15:02:22.326Z,5.50
2018-02-06T15:04:50.798Z,5.50
2018-02-06T15:07:19.385Z,5.40
2018-02-06T15:09:48.698Z,5.30
2018-02-06T15:12:17.053Z,5.20
2018-02-06T15:14:45.422Z,5.40
2018-02-06T15:17:13.957Z,5.50
2018-02-06T15:19:42.309Z,5.40
2018-02-06T15:22:10.749Z,5.30
2018-02-06T15:24:39.339Z,5.10
2018-02-06T15:27:07.721Z,4.90
2018-02-06T15:29:36.202Z,4.80
2018-02-06T15:32:04.689Z,4.60
2018-02-06T15:34:33.797Z,4.60
2018-02-06T15:37:02.532Z,4.50
2018-02-06T15:39:31.744Z,4.40
2018-02-06T15:42:00.895Z,4.40
2018-02-06T15:44:29.859Z,4.40
2018-02-06T15:46:58.466Z,4.30
2018-02-06T15:49:26.835Z,4.30
2018-02-06T15:51:55.205Z,4.20
2018-02-06T15:54:23.608Z,4.10
2018-02-06T15:56:52.026Z,4.10
2018-02-06T15:59:21.180Z,3.80
2018-02-06T16:01:49.685Z,3.80
2018-02-06T16:04:18.048Z,3.70
2018-02-06T16:06:46.421Z,3.60
2018-02-06T16:09:14.812Z,3.50
2018-02-06T16:11:44.687Z,3.40
2018-02-06T16:14:13.076Z,3.40
2018-02-06T16:16:41.477Z,3.40
2018-02-06T16:19:10.136Z,3.30
2018-02-06T16:21:38.626Z,3.20
2018-02-06T16:24:07.303Z,3.10
2018-02-06T16:26:35.701Z,3.00
2018-02-06T16:29:04.070Z,3.00
2018-02-06T16:31:32.476Z,2.90
2018-02-06T16:34:00.892Z,2.90
2018-02-06T16:36:29.329Z,2.80
2018-02-06T16:38:58.018Z,2.70
2018-02-06T16:41:26.623Z,2.70
2018-02-06T16:43:55.761Z,2.60
2018-02-06T16:46:24.334Z,2.60
2018-02-06T16:48:52.777Z,2.60
2018-02-06T16:51:22.049Z,2.50
2018-02-06T16:53:50.558Z,2.50
2018-02-06T16:56:19.686Z,2.40
2018-02-06T16:58:49.017Z,2.30
2018-02-06T17:01:17.690Z,2.30
2018-02-06T17:03:46.082Z,2.30
2018-02-06T17:06:14.646Z,2.20
2018-02-06T17:08:43.067Z,2.20
2018-02-06T17:11:12.087Z,2.10
2018-02-06T17:13:40.559Z,2.10
2018-02-06T17:16:10.093Z,2.10
2018-02-06T17:18:39.128Z,2.10
2018-02-06T17:21:08.695Z,2.00
2018-02-06T17:23:37.600Z,2.00
2018-02-06T17:26:06.665Z,2.00
2018-02-06T17:28:35.533Z,2.10
2018-02-06T17:31:04.977Z,2.10
2018-02-06T17:33:33.750Z,2.10
2018-02-06T17:36:02.144Z,2.00
2018-02-06T17:38:30.554Z,2.00
2018-02-06T17:41:00.652Z,1.90
2018-02-06T17:43:30.200Z,1.90
2018-02-06T17:45:59.765Z,1.80
2018-02-06T17:48:30.061Z,1.70
2018-02-06T17:51:00.008Z,1.70
2018-02-06T17:53:29.343Z,1.70
2018-02-06T17:55:58.246Z,1.60
2018-02-06T17:58:27.698Z,1.60
2018-02-06T18:00:57.332Z,1.60
2018-02-06T18:03:26.131Z,1.50
2018-02-06T18:05:56.119Z,1.50
2018-02-06T18:08:25.512Z,1.50
2018-02-06T18:10:53.889Z,1.50
2018-02-06T18:13:22.421Z,1.50
2018-02-06T18:15:52.198Z,1.40
2018-02-06T18:18:20.700Z,1.40
2018-02-06T18:20:49.785Z,1.40
2018-02-06T18:23:19.105Z,1.40
2018-02-06T18:25:49.588Z,1.40
2018-02-06T18:28:18.072Z,1.40
2018-02-06T18:30:47.735Z,1.40
2018-02-06T18:33:16.126Z,1.40
2018-02-06T18:35:44.511Z,1.40
2018-02-06T18:38:13.062Z,1.40
2018-02-06T18:40:41.654Z,1.40
2018-02-06T18:43:10.847Z,1.40
2018-02-06T18:45:40.254Z,1.40
2018-02-06T18:48:09.650Z,1.40
2018-02-06T18:50:38.876Z,1.30
2018-02-06T18:53:07.363Z,1.30
2018-02-06T18:55:35.862Z,1.30
2018-02-06T18:58:04.445Z,1.30
2018-02-06T19:00:32.935Z,1.30
2018-02-06T19:03:01.360Z,1.30
2018-02-06T19:05:30.514Z,1.30
2018-02-06T19:07:58.984Z,1.30
2018-02-06T19:10:27.475Z,1.30
2018-02-06T19:12:55.886Z,1.20
2018-02-06T19:15:25.370Z,1.20
2018-02-06T19:17:53.935Z,1.20
2018-02-06T19:20:22.662Z,1.20
2018-02-06T19:22:52.546Z,1.10
2018-02-06T19:25:20.953Z,1.10
2018-02-06T19:27:49.492Z,1.10
2018-02-06T19:30:19.418Z,1.00
2018-02-06T19:32:48.149Z,1.00
2018-02-06T19:35:17.305Z,1.10
2018-02-06T19:37:46.760Z,1.00
2018-02-06T19:40:15.794Z,1.10
2018-02-06T19:42:45.450Z,1.10
2018-02-06T19:45:15.207Z,1.10
2018-02-06T19:47:44.042Z,1.10
2018-02-06T19:50:12.906Z,1.00
2018-02-06T19:52:42.697Z,0.90
2018-02-06T19:55:11.486Z,0.90
2018-02-06T19:57:41.118Z,0.90
2018-02-06T20:00:10.139Z,0.90
2018-02-06T20:02:39.036Z,0.90
2018-02-06T20:05:08.217Z,0.90
2018-02-06T20:07:38.881Z,0.90
2018-02-06T20:10:08.104Z,0.80
2018-02-06T20:12:37.274Z,0.80
2018-02-06T20:15:05.886Z,0.80
2018-02-06T20:17:34.922Z,0.80
2018-02-06T20:20:03.767Z,0.80
2018-02-06T20:22:32.619Z,0.80
2018-02-06T20:25:01.384Z,0.80
2018-02-06T20:27:30.080Z,0.80
2018-02-06T20:29:58.870Z,0.70
2018-02-06T20:32:28.806Z,0.70
2018-02-06T20:34:58.963Z,0.70
2018-02-06T20:37:28.850Z,0.70
2018-02-06T20:39:57.658Z,0.70
2018-02-06T20:42:27.726Z,0.70
2018-02-06T20:44:57.479Z,0.70
2018-02-06T20:47:25.900Z,0.70
2018-02-06T20:49:55.792Z,0.70
2018-02-06T20:52:25.055Z,0.60
2018-02-06T20:54:53.975Z,0.60
2018-02-06T20:57:23.625Z,0.60
2018-02-06T20:59:52.670Z,0.60
2018-02-06T21:02:22.568Z,0.50
2018-02-06T21:04:52.361Z,0.60
2018-02-06T21:07:21.374Z,0.60
2018-02-06T21:09:50.769Z,0.60
2018-02-06T21:12:20.042Z,0.60
2018-02-06T21:14:48.913Z,0.60
2018-02-06T21:17:18.531Z,0.60
2018-02-06T21:19:47.964Z,0.60
2018-02-06T21:22:18.418Z,0.60
2018-02-06T21:24:49.702Z,0.50
2018-02-06T21:27:19.044Z,0.50
2018-02-06T21:29:48.440Z,0.50
2018-02-06T21:32:17.477Z,0.40
2018-02-06T21:34:46.252Z,0.30
2018-02-06T21:37:15.244Z,0.30
2018-02-06T21:39:45.657Z,0.30
2018-02-06T21:42:14.831Z,0.30
2018-02-06T21:44:44.725Z,0.30
2018-02-06T21:47:14.119Z,0.20
2018-02-06T21:49:42.964Z,0.20
2018-02-06T21:52:12.051Z,0.20
2018-02-06T21:54:41.134Z,0.20
2018-02-06T21:57:11.235Z,0.20
2018-02-06T21:59:40.063Z,0.20
2018-02-06T22:02:08.871Z,0.20
2018-02-06T22:04:37.297Z,0.20
2018-02-06T22:07:06.590Z,0.20
2018-02-06T22:09:36.039Z,0.20
2018-02-06T22:12:04.478Z,0.20
2018-02-06T22:14:33.617Z,0.20
2018-02-06T22:17:02.506Z,0.20
2018-02-06T22:19:31.111Z,0.20
2018-02-06T22:22:00.361Z,0.20
2018-02-06T22:24:28.969Z,0.10
2018-02-06T22:26:57.380Z,0.20
2018-02-06T22:29:25.754Z,0.20
2018-02-06T22:31:54.126Z,0.20
2018-02-06T22:34:22.979Z,0.20
2018-02-06T22:36:51.515Z,0.10
2018-02-06T22:39:20.656Z,0.20
2018-02-06T22:41:49.136Z,0.10
2018-02-06T22:44:17.520Z,0.20
2018-02-06T22:46:45.889Z,0.10
2018-02-06T22:49:14.290Z,0.10
2018-02-06T22:51:42.669Z,0.10
2018-02-06T22:54:11.033Z,0.10
2018-02-06T22:56:39.425Z,0.10
2018-02-06T22:59:07.791Z,0.10
2018-02-06T23:01:36.182Z,0.00
2018-02-06T23:04:04.599Z,0.00
2018-02-06T23:06:32.981Z,-0.10
2018-02-06T23:09:01.351Z,0.00
2018-02-06T23:11:29.757Z,-0.10
2018-02-06T23:13:58.889Z,-0.10
2018-02-06T23:16:27.261Z,-0.10
2018-02-06T23:18:55.789Z,-0.10
2018-02-06T23:21:24.180Z,-0.10
2018-02-06T23:23:52.585Z,-0.10
2018-02-06T23:26:21.004Z,-0.10
2018-02-06T23:28:49.377Z,-0.10
2018-02-06T23:31:17.746Z,-0.10
2018-02-06T23:33:46.151Z,-0.10
2018-02-06T23:36:14.535Z,-0.10
2018-02-06T23:38:42.909Z,0.00
2018-02-06T23:41:11.321Z,-0.10
2018-02-06T23:43:40.449Z,-0.10
2018-02-06T23:46:08.830Z,-0.10
2018-02-06T23:48:37.249Z,-0.10
2018-02-06T23:51:05.623Z,-0.10
2018-02-06T23:53:33.993Z,-0.10
2018-02-06T23:56:02.402Z,-0.10
2018-02-06T23:58:31.547Z,-0.10
